sensor_id;sensor_type;location;lat;lon;timestamp;pressure;altitude;pressure_sealevel;temperature;humidity
62725;BME280;49026;52.600;4.694;2022-10-29T00:00:51;102153.09;;;11.77;83.06
62725;BME280;49026;52.600;4.694;2022-10-29T00:03:17;102157.63;;;11.71;82.89
62725;BME280;49026;52.600;4.694;2022-10-29T00:05:43;102148.97;;;11.65;82.92
62725;BME280;49026;52.600;4.694;2022-10-29T00:08:13;102139.44;;;11.61;82.70
62725;BME280;49026;52.600;4.694;2022-10-29T00:10:38;102131.66;;;11.57;82.90
62725;BME280;49026;52.600;4.694;2022-10-29T00:13:03;102129.19;;;11.49;82.66
62725;BME280;49026;52.600;4.694;2022-10-29T00:15:29;102144.25;;;11.42;82.88
62725;BME280;49026;52.600;4.694;2022-10-29T00:17:54;102139.13;;;11.38;83.18
62725;BME280;49026;52.600;4.694;2022-10-29T00:20:19;102142.69;;;11.34;83.32
62725;BME280;49026;52.600;4.694;2022-10-29T00:22:46;102145.31;;;11.35;82.97
62725;BME280;49026;52.600;4.694;2022-10-29T00:25:11;102137.34;;;11.38;82.53
62725;BME280;49026;52.600;4.694;2022-10-29T00:27:36;102129.44;;;11.38;82.81
62725;BME280;49026;52.600;4.694;2022-10-29T00:30:04;102124.22;;;11.37;83.00
62725;BME280;49026;52.600;4.694;2022-10-29T00:32:30;102123.38;;;11.35;82.88
62725;BME280;49026;52.600;4.694;2022-10-29T00:34:58;102115.53;;;11.33;82.59
62725;BME280;49026;52.600;4.694;2022-10-29T00:37:23;102116.63;;;11.24;83.08
62725;BME280;49026;52.600;4.694;2022-10-29T00:39:51;102114.13;;;11.17;83.03
62725;BME280;49026;52.600;4.694;2022-10-29T00:42:16;102110.72;;;11.13;82.88
62725;BME280;49026;52.600;4.694;2022-10-29T00:44:41;102111.66;;;11.09;82.95
62725;BME280;49026;52.600;4.694;2022-10-29T00:47:25;102105.59;;;11.05;83.03
62725;BME280;49026;52.600;4.694;2022-10-29T00:50:00;102101.34;;;11.00;82.77
62725;BME280;49026;52.600;4.694;2022-10-29T00:52:29;102097.94;;;10.96;83.22
62725;BME280;49026;52.600;4.694;2022-10-29T00:54:57;102097.22;;;10.88;82.69
62725;BME280;49026;52.600;4.694;2022-10-29T00:57:31;102091.19;;;10.84;82.67
62725;BME280;49026;52.600;4.694;2022-10-29T00:59:59;102082.47;;;10.81;82.64
62725;BME280;49026;52.600;4.694;2022-10-29T01:02:26;102086.06;;;10.77;82.86
62725;BME280;49026;52.600;4.694;2022-10-29T01:04:53;102090.56;;;10.71;83.04
62725;BME280;49026;52.600;4.694;2022-10-29T01:07:20;102102.03;;;10.67;82.79
62725;BME280;49026;52.600;4.694;2022-10-29T01:09:48;102096.78;;;10.66;82.97
62725;BME280;49026;52.600;4.694;2022-10-29T01:12:20;102096.84;;;10.64;82.59
62725;BME280;49026;52.600;4.694;2022-10-29T01:29:16;102056.09;;;10.43;82.40
62725;BME280;49026;52.600;4.694;2022-10-29T01:32:01;102054.34;;;10.42;82.61
62725;BME280;49026;52.600;4.694;2022-10-29T01:34:53;102052.66;;;10.40;82.55
62725;BME280;49026;52.600;4.694;2022-10-29T01:37:47;102054.47;;;10.37;82.40
62725;BME280;49026;52.600;4.694;2022-10-29T01:40:28;102052.72;;;10.36;82.55
62725;BME280;49026;52.600;4.694;2022-10-29T01:43:05;102060.63;;;10.35;82.36
62725;BME280;49026;52.600;4.694;2022-10-29T01:45:35;102067.69;;;10.33;82.54
62725;BME280;49026;52.600;4.694;2022-10-29T01:48:13;102081.66;;;10.35;82.66
62725;BME280;49026;52.600;4.694;2022-10-29T01:50:45;102077.25;;;10.35;82.56
62725;BME280;49026;52.600;4.694;2022-10-29T01:53:13;102067.59;;;10.37;82.62
62725;BME280;49026;52.600;4.694;2022-10-29T01:55:41;102060.56;;;10.38;82.80
62725;BME280;49026;52.600;4.694;2022-10-29T01:58:06;102071.06;;;10.40;82.73
62725;BME280;49026;52.600;4.694;2022-10-29T02:00:39;102071.88;;;10.42;82.89
62725;BME280;49026;52.600;4.694;2022-10-29T02:06:14;102064.84;;;10.42;83.06
62725;BME280;49026;52.600;4.694;2022-10-29T02:11:45;102059.56;;;10.44;83.22
62725;BME280;49026;52.600;4.694;2022-10-29T02:14:29;102051.56;;;10.50;83.36
62725;BME280;49026;52.600;4.694;2022-10-29T02:16:59;102052.31;;;10.56;83.51
62725;BME280;49026;52.600;4.694;2022-10-29T02:19:29;102043.38;;;10.64;83.29
62725;BME280;49026;52.600;4.694;2022-10-29T02:21:55;102039.78;;;10.69;83.52
62725;BME280;49026;52.600;4.694;2022-10-29T02:24:22;102039.69;;;10.72;83.41
62725;BME280;49026;52.600;4.694;2022-10-29T02:26:48;102029.97;;;10.78;83.62
62725;BME280;49026;52.600;4.694;2022-10-29T02:29:14;102031.59;;;10.83;84.80
62725;BME280;49026;52.600;4.694;2022-10-29T02:31:41;102042.84;;;10.90;84.34
62725;BME280;49026;52.600;4.694;2022-10-29T02:34:07;102023.38;;;10.97;84.02
62725;BME280;49026;52.600;4.694;2022-10-29T02:36:32;102017.16;;;11.01;84.03
62725;BME280;49026;52.600;4.694;2022-10-29T02:38:58;102020.63;;;11.03;83.92
62725;BME280;49026;52.600;4.694;2022-10-29T02:41:25;102028.44;;;11.06;84.00
62725;BME280;49026;52.600;4.694;2022-10-29T02:43:53;102038.00;;;11.09;84.17
62725;BME280;49026;52.600;4.694;2022-10-29T02:46:21;102025.72;;;11.11;83.98
62725;BME280;49026;52.600;4.694;2022-10-29T02:48:49;102026.56;;;11.11;83.88
62725;BME280;49026;52.600;4.694;2022-10-29T02:51:16;102026.56;;;11.11;84.25
62725;BME280;49026;52.600;4.694;2022-10-29T02:53:41;102030.91;;;11.12;83.92
62725;BME280;49026;52.600;4.694;2022-10-29T02:56:08;102020.34;;;11.14;84.00
62725;BME280;49026;52.600;4.694;2022-10-29T02:58:33;102025.63;;;11.14;84.35
62725;BME280;49026;52.600;4.694;2022-10-29T03:00:59;102031.75;;;11.15;84.09
62725;BME280;49026;52.600;4.694;2022-10-29T03:03:25;102029.94;;;11.17;84.08
62725;BME280;49026;52.600;4.694;2022-10-29T03:05:50;102024.69;;;11.17;84.49
62725;BME280;49026;52.600;4.694;2022-10-29T03:08:16;102014.16;;;11.17;84.53
62725;BME280;49026;52.600;4.694;2022-10-29T03:10:42;102016.78;;;11.17;84.49
62725;BME280;49026;52.600;4.694;2022-10-29T03:13:07;102031.69;;;11.18;84.51
62725;BME280;49026;52.600;4.694;2022-10-29T03:15:35;102031.69;;;11.18;84.30
62725;BME280;49026;52.600;4.694;2022-10-29T03:18:03;102028.22;;;11.16;84.57
62725;BME280;49026;52.600;4.694;2022-10-29T03:20:29;102033.47;;;11.16;84.46
62725;BME280;49026;52.600;4.694;2022-10-29T03:22:55;102039.63;;;11.16;84.40
62725;BME280;49026;52.600;4.694;2022-10-29T03:25:20;102035.22;;;11.17;84.55
62725;BME280;49026;52.600;4.694;2022-10-29T03:27:45;102022.94;;;11.16;84.59
62725;BME280;49026;52.600;4.694;2022-10-29T03:30:13;102021.25;;;11.15;84.34
62725;BME280;49026;52.600;4.694;2022-10-29T03:32:45;102023.09;;;11.11;84.32
62725;BME280;49026;52.600;4.694;2022-10-29T03:35:12;102008.25;;;11.07;84.54
62725;BME280;49026;52.600;4.694;2022-10-29T03:37:38;101991.69;;;11.03;84.87
62725;BME280;49026;52.600;4.694;2022-10-29T03:40:07;101998.72;;;11.03;84.55
62725;BME280;49026;52.600;4.694;2022-10-29T03:42:32;102005.72;;;11.02;84.75
62725;BME280;49026;52.600;4.694;2022-10-29T03:45:01;102000.47;;;11.02;84.32
62725;BME280;49026;52.600;4.694;2022-10-29T03:47:27;102007.50;;;11.02;84.30
62725;BME280;49026;52.600;4.694;2022-10-29T03:49:53;102013.59;;;11.04;84.32
62725;BME280;49026;52.600;4.694;2022-10-29T03:52:18;102020.63;;;11.03;84.60
62725;BME280;49026;52.600;4.694;2022-10-29T03:54:46;102022.38;;;11.03;84.68
62725;BME280;49026;52.600;4.694;2022-10-29T03:57:11;102026.78;;;11.01;84.34
62725;BME280;49026;52.600;4.694;2022-10-29T03:59:39;102020.69;;;11.00;84.46
62725;BME280;49026;52.600;4.694;2022-10-29T04:02:04;102021.56;;;10.99;84.55
62725;BME280;49026;52.600;4.694;2022-10-29T04:04:32;102021.56;;;10.99;84.55
62725;BME280;49026;52.600;4.694;2022-10-29T04:06:58;102025.13;;;10.98;84.54
62725;BME280;49026;52.600;4.694;2022-10-29T04:09:26;102019.88;;;10.97;84.69
62725;BME280;49026;52.600;4.694;2022-10-29T04:11:51;102016.47;;;10.93;84.45
62725;BME280;49026;52.600;4.694;2022-10-29T04:14:18;102009.47;;;10.92;84.48
62725;BME280;49026;52.600;4.694;2022-10-29T04:16:43;102009.53;;;10.89;84.67
62725;BME280;49026;52.600;4.694;2022-10-29T04:19:09;102017.44;;;10.89;84.67
62725;BME280;49026;52.600;4.694;2022-10-29T04:21:34;102017.50;;;10.86;84.52
62725;BME280;49026;52.600;4.694;2022-10-29T04:23:59;102021.88;;;10.87;84.55
62725;BME280;49026;52.600;4.694;2022-10-29T04:26:24;102024.50;;;10.87;84.70
62725;BME280;49026;52.600;4.694;2022-10-29T04:28:50;102018.34;;;10.88;84.70
62725;BME280;49026;52.600;4.694;2022-10-29T04:31:16;102007.78;;;10.89;84.78
62725;BME280;49026;52.600;4.694;2022-10-29T04:33:42;102009.47;;;10.92;84.42
62725;BME280;49026;52.600;4.694;2022-10-29T04:36:10;102013.03;;;10.91;84.56
62725;BME280;49026;52.600;4.694;2022-10-29T04:38:35;102010.31;;;10.92;84.80
62725;BME280;49026;52.600;4.694;2022-10-29T04:41:01;102005.13;;;10.91;84.83
62725;BME280;49026;52.600;4.694;2022-10-29T04:43:27;102004.22;;;10.92;84.72
62725;BME280;49026;52.600;4.694;2022-10-29T04:45:54;102006.84;;;10.92;84.81
62725;BME280;49026;52.600;4.694;2022-10-29T04:48:20;102012.09;;;10.92;84.54
62725;BME280;49026;52.600;4.694;2022-10-29T04:50:46;102005.97;;;10.93;84.48
62725;BME280;49026;52.600;4.694;2022-10-29T04:53:12;102009.47;;;10.92;84.84
62725;BME280;49026;52.600;4.694;2022-10-29T04:55:39;102000.72;;;10.91;84.83
62725;BME280;49026;52.600;4.694;2022-10-29T04:58:11;101988.47;;;10.90;85.03
62725;BME280;49026;52.600;4.694;2022-10-29T05:00:37;101986.72;;;10.91;85.13
62725;BME280;49026;52.600;4.694;2022-10-29T05:03:02;101986.72;;;10.91;84.92
62725;BME280;49026;52.600;4.694;2022-10-29T05:05:27;101993.69;;;10.92;84.93
62725;BME280;49026;52.600;4.694;2022-10-29T05:08:00;102004.22;;;10.92;84.88
62725;BME280;49026;52.600;4.694;2022-10-29T05:10:28;102009.47;;;10.92;84.88
62725;BME280;49026;52.600;4.694;2022-10-29T05:13:02;101994.53;;;10.92;84.86
62725;BME280;49026;52.600;4.694;2022-10-29T05:15:28;101994.63;;;10.91;84.44
62725;BME280;49026;52.600;4.694;2022-10-29T05:17:55;101989.38;;;10.89;84.82
62725;BME280;49026;52.600;4.694;2022-10-29T05:20:20;101984.97;;;10.90;85.11
62725;BME280;49026;52.600;4.694;2022-10-29T05:22:46;101970.09;;;10.89;84.95
62725;BME280;49026;52.600;4.694;2022-10-29T05:25:11;101956.97;;;10.87;85.28
62725;BME280;49026;52.600;4.694;2022-10-29T05:27:37;101956.97;;;10.87;85.22
62725;BME280;49026;52.600;4.694;2022-10-29T05:30:02;101953.50;;;10.87;85.08
62725;BME280;49026;52.600;4.694;2022-10-29T05:32:28;101959.59;;;10.87;84.94
62725;BME280;49026;52.600;4.694;2022-10-29T05:34:53;101948.19;;;10.88;85.10
62725;BME280;49026;52.600;4.694;2022-10-29T05:37:19;101936.78;;;10.89;85.07
62725;BME280;49026;52.600;4.694;2022-10-29T05:39:44;101938.50;;;10.90;84.98
62725;BME280;49026;52.600;4.694;2022-10-29T05:42:14;101946.34;;;10.92;85.14
62725;BME280;49026;52.600;4.694;2022-10-29T05:44:39;101956.88;;;10.92;85.02
62725;BME280;49026;52.600;4.694;2022-10-29T05:47:05;101955.06;;;10.94;85.02
62725;BME280;49026;52.600;4.694;2022-10-29T05:49:30;101958.56;;;10.96;85.40
62725;BME280;49026;52.600;4.694;2022-10-29T05:51:56;101960.25;;;10.97;85.01
62725;BME280;49026;52.600;4.694;2022-10-29T05:54:23;101951.47;;;10.98;85.37
62725;BME280;49026;52.600;4.694;2022-10-29T05:56:48;101952.34;;;10.99;85.25
62725;BME280;49026;52.600;4.694;2022-10-29T05:59:14;101947.03;;;11.00;85.61
62725;BME280;49026;52.600;4.694;2022-10-29T06:01:49;101947.88;;;11.02;85.45
62725;BME280;49026;52.600;4.694;2022-10-29T06:04:14;101950.41;;;11.05;85.65
62725;BME280;49026;52.600;4.694;2022-10-29T06:06:39;101940.72;;;11.07;85.72
62725;BME280;49026;52.600;4.694;2022-10-29T06:09:05;101935.38;;;11.10;85.51
62725;BME280;49026;52.600;4.694;2022-10-29T06:11:37;101930.09;;;11.12;85.51
62725;BME280;49026;52.600;4.694;2022-10-29T06:14:06;101920.38;;;11.14;85.90
62725;BME280;49026;52.600;4.694;2022-10-29T06:16:31;101928.25;;;11.16;85.57
62725;BME280;49026;52.600;4.694;2022-10-29T06:18:56;101920.31;;;11.17;85.80
62725;BME280;49026;52.600;4.694;2022-10-29T06:21:21;101929.03;;;11.19;86.00
62725;BME280;49026;52.600;4.694;2022-10-29T06:23:47;101927.28;;;11.20;85.87
62725;BME280;49026;52.600;4.694;2022-10-29T06:26:14;101931.63;;;11.21;86.30
62725;BME280;49026;52.600;4.694;2022-10-29T06:28:39;101933.34;;;11.22;86.30
62725;BME280;49026;52.600;4.694;2022-10-29T06:31:05;101932.44;;;11.24;86.33
62725;BME280;49026;52.600;4.694;2022-10-29T06:33:30;101926.22;;;11.27;86.42
62725;BME280;49026;52.600;4.694;2022-10-29T06:36:01;101927.94;;;11.28;86.32
62725;BME280;49026;52.600;4.694;2022-10-29T06:38:26;101926.09;;;11.31;86.51
62725;BME280;49026;52.600;4.694;2022-10-29T06:40:52;101923.44;;;11.33;86.70
62725;BME280;49026;52.600;4.694;2022-10-29T06:43:20;101925.88;;;11.39;86.69
62725;BME280;49026;52.600;4.694;2022-10-29T06:45:47;101931.84;;;11.46;86.45
62725;BME280;49026;52.600;4.694;2022-10-29T06:48:12;101933.50;;;11.50;86.65
62725;BME280;49026;52.600;4.694;2022-10-29T06:50:40;101931.66;;;11.54;87.25
62725;BME280;49026;52.600;4.694;2022-10-29T06:53:06;101940.28;;;11.59;87.18
62725;BME280;49026;52.600;4.694;2022-10-29T06:55:33;101939.31;;;11.63;87.10
62725;BME280;49026;52.600;4.694;2022-10-29T06:58:13;101941.03;;;11.64;86.98
62725;BME280;49026;52.600;4.694;2022-10-29T07:00:39;101945.41;;;11.65;89.09
62725;BME280;49026;52.600;4.694;2022-10-29T07:03:05;101943.59;;;11.67;89.25
62725;BME280;49026;52.600;4.694;2022-10-29T07:05:31;101946.13;;;11.70;88.45
62725;BME280;49026;52.600;4.694;2022-10-29T07:08:00;101945.13;;;11.74;88.88
62725;BME280;49026;52.600;4.694;2022-10-29T07:10:28;101950.28;;;11.79;87.89
62725;BME280;49026;52.600;4.694;2022-10-29T07:12:53;101933.50;;;11.83;87.60
62725;BME280;49026;52.600;4.694;2022-10-29T07:15:19;101940.34;;;11.89;86.64
62725;BME280;49026;52.600;4.694;2022-10-29T07:17:58;101934.97;;;11.95;86.75
62725;BME280;49026;52.600;4.694;2022-10-29T07:20:26;101938.31;;;12.00;86.72
62725;BME280;49026;52.600;4.694;2022-10-29T07:22:51;101924.16;;;12.04;86.90
62725;BME280;49026;52.600;4.694;2022-10-29T07:25:17;101923.16;;;12.08;86.59
62725;BME280;49026;52.600;4.694;2022-10-29T07:27:43;101924.75;;;12.14;86.88
62725;BME280;49026;52.600;4.694;2022-10-29T07:30:08;101917.59;;;12.17;87.55
62725;BME280;49026;52.600;4.694;2022-10-29T07:32:33;101907.84;;;12.21;87.33
62725;BME280;49026;52.600;4.694;2022-10-29T07:34:59;101898.91;;;12.27;87.04
62725;BME280;49026;52.600;4.694;2022-10-29T07:37:24;101896.13;;;12.31;86.93
62725;BME280;49026;52.600;4.694;2022-10-29T07:39:49;101904.81;;;12.35;87.31
62725;BME280;49026;52.600;4.694;2022-10-29T07:42:14;101902.06;;;12.38;88.27
62725;BME280;49026;52.600;4.694;2022-10-29T07:44:40;101909.88;;;12.41;88.16
62725;BME280;49026;52.600;4.694;2022-10-29T07:47:05;101922.88;;;12.47;88.09
62725;BME280;49026;52.600;4.694;2022-10-29T07:49:30;101913.97;;;12.51;88.57
62725;BME280;49026;52.600;4.694;2022-10-29T07:51:55;101915.50;;;12.58;88.43
62725;BME280;49026;52.600;4.694;2022-10-29T07:54:21;101918.88;;;12.62;88.93
62725;BME280;49026;52.600;4.694;2022-10-29T07:56:46;101914.38;;;12.66;90.21
62725;BME280;49026;52.600;4.694;2022-10-29T07:59:14;101909.81;;;12.71;89.47
62725;BME280;49026;52.600;4.694;2022-10-29T08:01:39;101910.53;;;12.76;89.53
62725;BME280;49026;52.600;4.694;2022-10-29T08:04:07;101920.00;;;12.83;88.51
62725;BME280;49026;52.600;4.694;2022-10-29T08:06:32;101924.19;;;12.89;88.78
62725;BME280;49026;52.600;4.694;2022-10-29T08:09:00;101917.84;;;12.94;87.88
62725;BME280;49026;52.600;4.694;2022-10-29T08:11:25;101919.53;;;12.97;88.19
62725;BME280;49026;52.600;4.694;2022-10-29T08:13:51;101915.06;;;12.99;88.33
62725;BME280;49026;52.600;4.694;2022-10-29T08:16:16;101914.16;;;13.00;89.09
62725;BME280;49026;52.600;4.694;2022-10-29T08:18:43;101922.84;;;13.04;89.15
62725;BME280;49026;52.600;4.694;2022-10-29T08:21:12;101934.00;;;13.12;88.35
62725;BME280;49026;52.600;4.694;2022-10-29T08:23:37;101931.16;;;13.18;89.25
62725;BME280;49026;52.600;4.694;2022-10-29T08:26:02;101929.22;;;13.23;89.02
62725;BME280;49026;52.600;4.694;2022-10-29T08:28:29;101930.84;;;13.27;89.93
62725;BME280;49026;52.600;4.694;2022-10-29T08:30:55;101923.72;;;13.29;89.68
62725;BME280;49026;52.600;4.694;2022-10-29T08:33:20;101919.22;;;13.33;89.53
62725;BME280;49026;52.600;4.694;2022-10-29T08:35:46;101923.66;;;13.32;90.01
62725;BME280;49026;52.600;4.694;2022-10-29T08:38:13;101916.53;;;13.34;89.81
62725;BME280;49026;52.600;4.694;2022-10-29T08:44:05;101910.94;;;13.44;90.29
62725;BME280;49026;52.600;4.694;2022-10-29T08:46:52;101909.84;;;13.49;90.51
62725;BME280;49026;52.600;4.694;2022-10-29T08:49:22;101892.84;;;13.58;90.31
62725;BME280;49026;52.600;4.694;2022-10-29T08:51:57;101889.84;;;13.67;90.36
62725;BME280;49026;52.600;4.694;2022-10-29T08:54:25;101889.59;;;13.75;90.73
62725;BME280;49026;52.600;4.694;2022-10-29T08:56:56;101886.53;;;13.86;90.88
62725;BME280;49026;52.600;4.694;2022-10-29T08:59:24;101900.22;;;13.97;90.95
62725;BME280;49026;52.600;4.694;2022-10-29T09:01:55;101897.16;;;14.08;90.49
62725;BME280;49026;52.600;4.694;2022-10-29T09:07:18;101888.91;;;14.39;90.36
62725;BME280;49026;52.600;4.694;2022-10-29T09:15:39;101900.94;;;14.70;88.94
62725;BME280;49026;52.600;4.694;2022-10-29T09:26:19;101872.81;;;15.10;88.09
62725;BME280;49026;52.600;4.694;2022-10-29T09:31:55;101856.59;;;15.38;87.31
62725;BME280;49026;52.600;4.694;2022-10-29T09:34:37;101858.03;;;15.46;86.78
62725;BME280;49026;52.600;4.694;2022-10-29T09:37:14;101849.91;;;15.50;86.28
62725;BME280;49026;52.600;4.694;2022-10-29T09:39:41;101851.56;;;15.72;86.61
62725;BME280;49026;52.600;4.694;2022-10-29T09:42:16;101843.34;;;16.16;87.16
62725;BME280;49026;52.600;4.694;2022-10-29T09:44:50;101840.03;;;16.49;86.77
62725;BME280;49026;52.600;4.694;2022-10-29T09:50:18;101836.44;;;17.71;82.03
62725;BME280;49026;52.600;4.694;2022-10-29T09:52:47;101825.28;;;17.80;75.30
62725;BME280;49026;52.600;4.694;2022-10-29T09:55:20;101825.06;;;17.51;79.86
62725;BME280;49026;52.600;4.694;2022-10-29T09:57:47;101811.81;;;17.34;81.97
62725;BME280;49026;52.600;4.694;2022-10-29T10:00:21;101815.06;;;17.23;82.50
62725;BME280;49026;52.600;4.694;2022-10-29T10:02:53;101812.09;;;17.12;82.15
62725;BME280;49026;52.600;4.694;2022-10-29T10:05:27;101800.56;;;16.95;82.35
62725;BME280;49026;52.600;4.694;2022-10-29T10:08:08;101815.25;;;16.85;82.79
62725;BME280;49026;52.600;4.694;2022-10-29T10:10:38;101835.13;;;16.94;83.33
62725;BME280;49026;52.600;4.694;2022-10-29T10:13:13;101840.84;;;17.03;83.86
62725;BME280;49026;52.600;4.694;2022-10-29T10:15:53;101827.81;;;17.16;83.54
62725;BME280;49026;52.600;4.694;2022-10-29T10:18:24;101816.44;;;17.30;83.29
62725;BME280;49026;52.600;4.694;2022-10-29T10:23:26;101816.03;;;17.71;82.80
62725;BME280;49026;52.600;4.694;2022-10-29T10:25:57;101811.59;;;17.88;82.73
62725;BME280;49026;52.600;4.694;2022-10-29T10:28:27;101813.13;;;17.92;82.36
62725;BME280;49026;52.600;4.694;2022-10-29T10:31:12;101812.97;;;17.95;82.33
62725;BME280;49026;52.600;4.694;2022-10-29T10:33:48;101811.78;;;18.17;82.55
62725;BME280;49026;52.600;4.694;2022-10-29T10:36:14;101814.72;;;18.88;82.80
62725;BME280;49026;52.600;4.694;2022-10-29T10:38:43;101803.53;;;19.12;80.47
62725;BME280;49026;52.600;4.694;2022-10-29T10:41:10;101804.69;;;19.08;80.45
62725;BME280;49026;52.600;4.694;2022-10-29T10:43:43;101804.50;;;19.11;80.28
62725;BME280;49026;52.600;4.694;2022-10-29T10:46:14;101797.44;;;19.10;80.35
62725;BME280;49026;52.600;4.694;2022-10-29T10:48:42;101791.75;;;19.16;80.50
62725;BME280;49026;52.600;4.694;2022-10-29T10:51:25;101780.22;;;19.16;80.23
62725;BME280;49026;52.600;4.694;2022-10-29T10:53:51;101781.28;;;19.28;80.42
62725;BME280;49026;52.600;4.694;2022-10-29T10:56:19;101768.72;;;19.44;80.01
62725;BME280;49026;52.600;4.694;2022-10-29T10:58:58;101764.69;;;19.80;78.35
62725;BME280;49026;52.600;4.694;2022-10-29T11:01:33;101758.84;;;20.42;77.92
62725;BME280;49026;52.600;4.694;2022-10-29T11:04:08;101747.06;;;21.10;75.20
62725;BME280;49026;52.600;4.694;2022-10-29T11:06:42;101746.25;;;21.60;74.00
62725;BME280;49026;52.600;4.694;2022-10-29T11:12:26;101757.16;;;22.42;73.51
62725;BME280;49026;52.600;4.694;2022-10-29T11:15:04;101760.44;;;22.21;67.51
62725;BME280;49026;52.600;4.694;2022-10-29T11:20:02;101752.34;;;21.62;75.30
62725;BME280;49026;52.600;4.694;2022-10-29T11:25:44;101764.28;;;22.66;74.04
62725;BME280;49026;52.600;4.694;2022-10-29T11:28:31;101758.06;;;23.23;70.28
62725;BME280;49026;52.600;4.694;2022-10-29T11:31:26;101753.66;;;23.34;70.07
62725;BME280;49026;52.600;4.694;2022-10-29T11:34:02;101743.78;;;23.11;72.45
62725;BME280;49026;52.600;4.694;2022-10-29T11:36:35;101741.06;;;23.00;71.43
62725;BME280;49026;52.600;4.694;2022-10-29T11:39:16;101736.81;;;22.86;74.34
62725;BME280;49026;52.600;4.694;2022-10-29T11:41:59;101731.63;;;22.25;72.85
62725;BME280;49026;52.600;4.694;2022-10-29T11:44:35;101731.47;;;21.67;74.94
62725;BME280;49026;52.600;4.694;2022-10-29T11:50:05;101723.13;;;20.70;74.80
62725;BME280;49026;52.600;4.694;2022-10-29T11:52:43;101729.06;;;20.48;76.43
62725;BME280;49026;52.600;4.694;2022-10-29T11:55:53;101717.44;;;20.62;77.51
62725;BME280;49026;52.600;4.694;2022-10-29T11:58:09;101719.28;;;20.75;76.24
62725;BME280;49026;52.600;4.694;2022-10-29T12:06:24;101718.53;;;20.72;76.77
62725;BME280;49026;52.600;4.694;2022-10-29T12:17:20;101688.25;;;21.23;74.48
62725;BME280;49026;52.600;4.694;2022-10-29T12:22:46;101687.78;;;21.42;74.62
62725;BME280;49026;52.600;4.694;2022-10-29T12:30:22;101682.88;;;22.33;74.71
62725;BME280;49026;52.600;4.694;2022-10-29T12:32:58;101686.81;;;22.51;73.32
62725;BME280;49026;52.600;4.694;2022-10-29T12:41:00;101684.13;;;22.40;62.07
62725;BME280;49026;52.600;4.694;2022-10-29T12:43:29;101689.16;;;22.20;71.89
62725;BME280;49026;52.600;4.694;2022-10-29T12:46:02;101686.31;;;21.87;72.32
62725;BME280;49026;52.600;4.694;2022-10-29T12:48:44;101681.00;;;21.62;72.97
62725;BME280;49026;52.600;4.694;2022-10-29T12:56:52;101671.88;;;21.28;72.82
62725;BME280;49026;52.600;4.694;2022-10-29T13:01:52;101659.81;;;21.22;74.16
62725;BME280;49026;52.600;4.694;2022-10-29T13:07:00;101645.72;;;21.07;75.43
62725;BME280;49026;52.600;4.694;2022-10-29T13:11:55;101646.63;;;20.95;75.55
62725;BME280;49026;52.600;4.694;2022-10-29T13:14:40;101656.25;;;20.85;75.51
62725;BME280;49026;52.600;4.694;2022-10-29T13:17:26;101648.66;;;20.79;75.48
62725;BME280;49026;52.600;4.694;2022-10-29T13:20:00;101648.47;;;20.82;76.09
62725;BME280;49026;52.600;4.694;2022-10-29T13:30:48;101632.97;;;20.87;75.54
62725;BME280;49026;52.600;4.694;2022-10-29T13:38:16;101632.97;;;20.74;74.57
62725;BME280;49026;52.600;4.694;2022-10-29T13:43:29;101632.19;;;20.59;75.99
62725;BME280;49026;52.600;4.694;2022-10-29T13:46:03;101628.47;;;20.49;76.21
62725;BME280;49026;52.600;4.694;2022-10-29T13:48:33;101636.69;;;20.46;76.67
62725;BME280;49026;52.600;4.694;2022-10-29T13:51:04;101638.28;;;20.48;76.76
62725;BME280;49026;52.600;4.694;2022-10-29T13:53:37;101625.72;;;20.63;77.06
62725;BME280;49026;52.600;4.694;2022-10-29T13:56:12;101631.38;;;20.71;75.35
62725;BME280;49026;52.600;4.694;2022-10-29T13:58:43;101636.16;;;20.66;74.63
62725;BME280;49026;52.600;4.694;2022-10-29T14:01:16;101630.50;;;20.58;74.78
62725;BME280;49026;52.600;4.694;2022-10-29T14:03:53;101625.16;;;20.45;74.71
62725;BME280;49026;52.600;4.694;2022-10-29T14:06:29;101626.75;;;20.35;75.97
62725;BME280;49026;52.600;4.694;2022-10-29T14:11:54;101614.16;;;20.11;76.35
62725;BME280;49026;52.600;4.694;2022-10-29T14:14:33;101616.59;;;20.02;76.23
62725;BME280;49026;52.600;4.694;2022-10-29T14:17:15;101628.84;;;19.91;75.92
62725;BME280;49026;52.600;4.694;2022-10-29T14:19:49;101617.81;;;19.83;76.41
62725;BME280;49026;52.600;4.694;2022-10-29T14:22:35;101624.50;;;19.76;75.74
62725;BME280;49026;52.600;4.694;2022-10-29T14:28:26;101618.03;;;19.66;75.98
62725;BME280;49026;52.600;4.694;2022-10-29T14:31:06;101624.44;;;19.63;76.69
62725;BME280;49026;52.600;4.694;2022-10-29T14:33:37;101627.31;;;19.60;76.70
62725;BME280;49026;52.600;4.694;2022-10-29T14:38:36;101619.63;;;19.55;76.52
62725;BME280;49026;52.600;4.694;2022-10-29T14:41:06;101623.22;;;19.54;76.97
62725;BME280;49026;52.600;4.694;2022-10-29T14:43:34;101621.53;;;19.53;77.26
62725;BME280;49026;52.600;4.694;2022-10-29T14:46:16;101617.34;;;19.49;77.03
62725;BME280;49026;52.600;4.694;2022-10-29T14:49:02;101600.78;;;19.44;77.42
62725;BME280;49026;52.600;4.694;2022-10-29T14:51:37;101599.09;;;19.43;77.71
62725;BME280;49026;52.600;4.694;2022-10-29T14:54:14;101594.72;;;19.42;77.69
62725;BME280;49026;52.600;4.694;2022-10-29T14:56:41;101600.16;;;19.40;77.83
62725;BME280;49026;52.600;4.694;2022-10-29T14:59:11;101594.91;;;19.39;77.46
62725;BME280;49026;52.600;4.694;2022-10-29T15:01:50;101595.09;;;19.36;77.59
62725;BME280;49026;52.600;4.694;2022-10-29T15:04:22;101591.88;;;19.31;77.72
62725;BME280;49026;52.600;4.694;2022-10-29T15:06:48;101590.41;;;19.27;77.68
62725;BME280;49026;52.600;4.694;2022-10-29T15:09:15;101589.94;;;19.20;77.53